createdAt,value
2023-05-10T00:00:21.551Z,8.57
2023-05-10T00:02:53.935Z,8.63
2023-05-10T00:05:23.684Z,8.20
2023-05-10T00:07:53.216Z,10.30
2023-05-10T00:10:22.689Z,7.25
2023-05-10T00:12:52.247Z,7.65
2023-05-10T00:15:21.710Z,8.43
2023-05-10T00:17:53.826Z,8.00
2023-05-10T00:20:23.332Z,9.88
2023-05-10T00:22:52.740Z,9.15
2023-05-10T00:25:22.666Z,7.57
2023-05-10T00:27:52.277Z,5.93
2023-05-10T00:30:21.854Z,7.57
2023-05-10T00:32:54.100Z,7.32
2023-05-10T00:35:23.630Z,6.60
2023-05-10T00:37:53.203Z,6.88
2023-05-10T00:40:24.528Z,7.05
2023-05-10T00:42:58.513Z,7.35
2023-05-10T00:45:28.466Z,8.18
2023-05-10T00:48:01.070Z,7.22
2023-05-10T00:53:00.499Z,8.48
2023-05-10T00:55:30.352Z,8.25
2023-05-10T00:57:59.836Z,8.93
2023-05-10T01:00:30.690Z,9.13
2023-05-10T01:03:02.947Z,8.60
2023-05-10T01:05:33.016Z,9.35
2023-05-10T01:08:02.474Z,10.30
2023-05-10T01:10:34.282Z,10.57
2023-05-10T01:13:04.268Z,9.68
2023-05-10T01:15:34.865Z,10.48
2023-05-10T01:18:07.452Z,8.52
2023-05-10T01:20:46.905Z,9.48
2023-05-10T01:23:39.615Z,8.35
2023-05-10T01:26:28.416Z,9.50
2023-05-10T01:29:22.589Z,8.18
2023-05-10T01:32:19.985Z,11.73
2023-05-10T01:35:00.893Z,10.00
2023-05-10T01:37:43.206Z,11.15
2023-05-10T01:40:29.730Z,10.38
2023-05-10T01:43:04.615Z,9.18
2023-05-10T01:45:37.888Z,9.02
2023-05-10T01:48:13.422Z,9.88
2023-05-10T01:50:47.575Z,8.90
2023-05-10T01:53:22.527Z,8.38
2023-05-10T01:55:56.191Z,11.18
2023-05-10T01:58:31.028Z,10.80
2023-05-10T02:01:03.770Z,10.25
2023-05-10T02:03:38.307Z,9.88
2023-05-10T02:06:09.525Z,8.18
2023-05-10T02:08:40.052Z,9.23
2023-05-10T02:11:10.483Z,11.82
2023-05-10T02:13:41.432Z,11.20
2023-05-10T02:16:12.128Z,8.75
2023-05-10T02:18:45.173Z,10.95
2023-05-10T02:21:16.094Z,11.50
2023-05-10T02:23:46.921Z,9.35
2023-05-10T02:26:17.732Z,9.25
2023-05-10T02:28:48.452Z,10.25
2023-05-10T02:31:18.876Z,10.68
2023-05-10T02:33:52.708Z,10.38
2023-05-10T02:36:24.858Z,11.48
2023-05-10T02:38:56.561Z,9.70
2023-05-10T02:41:28.854Z,10.02
2023-05-10T02:44:03.722Z,10.95
2023-05-10T02:46:34.196Z,12.50
2023-05-10T02:49:07.866Z,11.05
2023-05-10T02:51:41.172Z,10.10
2023-05-10T02:54:15.747Z,12.30
2023-05-10T02:56:50.946Z,11.30
2023-05-10T02:59:20.775Z,11.23
2023-05-10T03:01:50.435Z,12.52
2023-05-10T03:04:22.736Z,10.23
2023-05-10T03:06:52.361Z,9.88
2023-05-10T03:09:22.677Z,12.23
2023-05-10T03:12:00.472Z,10.93
2023-05-10T03:14:47.159Z,10.70
2023-05-10T03:17:21.700Z,9.43
2023-05-10T03:19:58.160Z,12.35
2023-05-10T03:22:34.354Z,10.93
2023-05-10T03:25:07.551Z,11.70
2023-05-10T03:27:40.215Z,10.80
2023-05-10T03:30:12.438Z,11.32
2023-05-10T03:32:42.366Z,12.38
2023-05-10T03:35:16.906Z,12.32
2023-05-10T03:37:48.024Z,14.18
2023-05-10T03:40:18.218Z,12.23
2023-05-10T03:42:48.064Z,10.68
2023-05-10T03:45:17.560Z,11.32
2023-05-10T03:47:47.058Z,11.20
2023-05-10T03:50:19.593Z,11.85
2023-05-10T03:55:18.566Z,10.90
2023-05-10T03:57:50.647Z,12.95
2023-05-10T04:00:20.577Z,12.00
2023-05-10T04:02:53.879Z,13.00
2023-05-10T04:05:26.327Z,11.93
2023-05-10T04:10:25.665Z,13.43
2023-05-10T04:12:55.118Z,12.38
2023-05-10T04:15:24.661Z,11.37
2023-05-10T04:17:54.826Z,13.17
2023-05-10T04:20:27.012Z,11.13
2023-05-10T04:22:56.699Z,11.65
2023-05-10T04:25:26.260Z,11.00
2023-05-10T04:27:55.808Z,14.03
2023-05-10T04:30:25.212Z,12.50
2023-05-10T04:32:54.652Z,11.83
2023-05-10T04:35:27.296Z,12.90
2023-05-10T04:40:26.008Z,11.98
2023-05-10T04:42:55.591Z,11.70
2023-05-10T04:45:25.236Z,11.20
2023-05-10T04:47:54.695Z,11.80
2023-05-10T04:50:27.012Z,12.90
2023-05-10T04:52:56.605Z,11.95
2023-05-10T04:55:26.184Z,11.73
2023-05-10T04:57:57.851Z,13.33
2023-05-10T05:00:27.395Z,13.82
2023-05-10T05:02:56.906Z,12.50
2023-05-10T05:05:29.030Z,11.57
2023-05-10T05:07:58.484Z,14.45
2023-05-10T05:10:27.931Z,15.07
2023-05-10T05:12:57.408Z,12.30
2023-05-10T05:15:26.956Z,13.40
2023-05-10T05:17:56.558Z,11.70
2023-05-10T05:20:26.048Z,14.07
2023-05-10T05:22:58.182Z,12.13
2023-05-10T05:25:27.644Z,11.43
2023-05-10T05:27:57.168Z,13.13
2023-05-10T05:30:26.610Z,11.17
2023-05-10T05:32:56.171Z,15.27
2023-05-10T05:35:25.700Z,12.30
2023-05-10T05:37:57.744Z,12.23
2023-05-10T05:40:27.170Z,11.88
2023-05-10T05:42:56.595Z,13.57
2023-05-10T05:45:26.018Z,13.97
2023-05-10T05:47:55.514Z,12.40
2023-05-10T05:50:25.067Z,12.53
2023-05-10T05:52:54.514Z,11.60
2023-05-10T05:55:27.020Z,10.77
2023-05-10T05:57:56.499Z,12.32
2023-05-10T06:00:25.971Z,11.77
2023-05-10T06:02:55.518Z,11.67
2023-05-10T06:05:25.029Z,11.83
2023-05-10T06:07:54.473Z,11.73
2023-05-10T06:10:26.607Z,12.23
2023-05-10T06:12:56.219Z,11.48
2023-05-10T06:15:25.783Z,11.50
2023-05-10T06:17:55.348Z,12.10
2023-05-10T06:20:24.803Z,13.10
2023-05-10T06:22:54.309Z,15.23
2023-05-10T06:25:26.432Z,10.33
2023-05-10T06:27:58.884Z,12.48
2023-05-10T06:30:30.328Z,12.02
2023-05-10T06:33:00.386Z,13.33
2023-05-10T06:35:30.665Z,11.17
2023-05-10T06:38:00.231Z,13.70
2023-05-10T06:40:32.499Z,13.33
2023-05-10T06:43:02.020Z,12.73
2023-05-10T06:45:31.572Z,13.07
2023-05-10T06:48:01.055Z,12.00
2023-05-10T06:50:30.759Z,13.37
2023-05-10T06:53:00.314Z,14.70
2023-05-10T06:55:32.543Z,12.43
2023-05-10T06:58:02.030Z,14.30
2023-05-10T07:00:31.706Z,12.70
2023-05-10T07:03:01.236Z,11.93
2023-05-10T07:05:31.164Z,11.40
2023-05-10T07:08:00.974Z,13.97
2023-05-10T07:10:33.107Z,12.35
2023-05-10T07:13:02.795Z,11.48
2023-05-10T07:15:32.764Z,12.02
2023-05-10T07:18:02.368Z,12.32
2023-05-10T07:20:31.906Z,12.45
2023-05-10T07:23:01.520Z,10.57
2023-05-10T07:25:33.585Z,12.60
2023-05-10T07:28:02.999Z,12.00
2023-05-10T07:30:32.496Z,12.45
2023-05-10T07:33:02.062Z,13.52
2023-05-10T07:35:31.637Z,11.45
2023-05-10T07:38:01.724Z,14.23
2023-05-10T07:40:33.885Z,12.75
2023-05-10T07:43:03.898Z,12.73
2023-05-10T07:45:33.601Z,12.10
2023-05-10T07:48:05.653Z,14.07
2023-05-10T07:50:35.285Z,13.25
2023-05-10T07:53:04.717Z,12.63
2023-05-10T07:55:37.045Z,12.23
2023-05-10T07:58:06.484Z,13.00
2023-05-10T08:00:36.344Z,12.03
2023-05-10T08:03:05.898Z,12.37
2023-05-10T08:05:35.873Z,12.10
2023-05-10T08:08:05.375Z,11.20
2023-05-10T08:10:37.440Z,9.90
2023-05-10T08:13:07.214Z,10.07
2023-05-10T08:15:36.678Z,7.63
2023-05-10T08:18:06.282Z,9.30
2023-05-10T08:20:35.755Z,8.70
2023-05-10T08:23:07.218Z,7.90
2023-05-10T08:25:39.258Z,5.70
2023-05-10T08:28:09.994Z,5.25
2023-05-10T08:30:41.308Z,6.00
2023-05-10T08:33:10.774Z,4.72
2023-05-10T08:35:40.331Z,4.22
2023-05-10T08:38:09.767Z,1.90
2023-05-10T08:40:44.286Z,3.15
2023-05-10T08:43:16.543Z,2.10
2023-05-10T08:45:48.953Z,2.78
2023-05-10T08:48:19.281Z,3.40
2023-05-10T08:50:50.132Z,4.70
2023-05-10T08:53:20.406Z,6.28
2023-05-10T08:55:52.500Z,3.28
2023-05-10T08:58:23.223Z,4.40
2023-05-10T09:00:54.693Z,4.38
2023-05-10T09:03:24.314Z,4.80
2023-05-10T09:05:53.815Z,2.67
2023-05-10T09:08:26.469Z,5.57
2023-05-10T09:13:28.688Z,5.33
2023-05-10T09:16:02.138Z,4.05
2023-05-10T09:18:36.560Z,3.80
2023-05-10T09:21:06.544Z,3.42
2023-05-10T09:23:36.029Z,2.75
2023-05-10T09:26:08.896Z,6.20
2023-05-10T09:28:53.589Z,4.95
2023-05-10T09:31:23.377Z,5.57
2023-05-10T09:33:54.227Z,5.20
2023-05-10T09:36:23.754Z,7.78
2023-05-10T09:38:55.963Z,7.65
2023-05-10T09:41:29.226Z,6.05
2023-05-10T09:43:59.925Z,7.80
2023-05-10T09:46:29.596Z,5.70
2023-05-10T09:48:59.229Z,4.65
2023-05-10T09:51:29.220Z,5.68
2023-05-10T09:54:13.765Z,5.35
2023-05-10T09:56:46.455Z,6.95
2023-05-10T10:01:46.000Z,7.15
2023-05-10T10:04:15.700Z,6.45
2023-05-10T10:06:45.719Z,6.45
2023-05-10T10:09:15.205Z,6.38
2023-05-10T10:11:47.283Z,7.45
2023-05-10T10:14:16.798Z,7.75
2023-05-10T10:16:55.710Z,9.52
2023-05-10T10:19:37.246Z,13.25
2023-05-10T10:22:07.367Z,12.40
2023-05-10T10:24:36.962Z,9.38
2023-05-10T10:27:19.054Z,8.40
2023-05-10T10:30:03.161Z,6.80
2023-05-10T10:32:41.982Z,7.85
2023-05-10T10:35:12.685Z,6.85
2023-05-10T10:37:47.359Z,6.00
2023-05-10T10:40:32.824Z,7.18
2023-05-10T10:43:27.831Z,7.82
2023-05-10T10:46:13.754Z,8.63
2023-05-10T10:48:43.635Z,6.40
2023-05-10T10:51:13.163Z,7.68
2023-05-10T10:53:43.981Z,7.30
2023-05-10T10:56:16.638Z,6.60
2023-05-10T11:01:24.697Z,10.02
2023-05-10T11:04:21.466Z,7.53
2023-05-10T11:06:51.137Z,6.97
2023-05-10T11:09:21.875Z,6.57
2023-05-10T11:11:56.616Z,7.45
2023-05-10T11:14:29.334Z,9.10
2023-05-10T11:19:31.646Z,8.38
2023-05-10T11:22:16.692Z,6.72
2023-05-10T11:25:00.388Z,7.50
2023-05-10T11:27:30.225Z,8.05
2023-05-10T11:30:04.289Z,8.25
2023-05-10T11:32:34.720Z,8.45
2023-05-10T11:35:11.011Z,9.95
2023-05-10T11:37:42.512Z,9.75
2023-05-10T11:40:12.747Z,7.60
2023-05-10T11:42:42.505Z,8.23
2023-05-10T11:45:14.949Z,11.63
2023-05-10T11:47:44.714Z,8.32
2023-05-10T11:50:15.221Z,8.90
2023-05-10T11:52:44.963Z,9.25
2023-05-10T11:55:16.062Z,8.75
2023-05-10T11:57:47.027Z,8.88
2023-05-10T12:00:19.934Z,7.97
2023-05-10T12:02:50.132Z,8.38
2023-05-10T12:05:20.524Z,10.20
2023-05-10T12:07:49.975Z,9.18
2023-05-10T12:10:19.752Z,11.82
2023-05-10T12:12:51.225Z,10.70
2023-05-10T12:15:25.430Z,14.10
2023-05-10T12:17:55.865Z,10.48
2023-05-10T12:20:27.270Z,9.68
2023-05-10T12:23:00.362Z,8.43
2023-05-10T12:25:34.390Z,12.18
2023-05-10T12:28:07.526Z,9.75
2023-05-10T12:30:40.671Z,12.60
2023-05-10T12:33:16.203Z,10.38
2023-05-10T12:35:50.312Z,10.85
2023-05-10T12:38:31.875Z,10.18
2023-05-10T12:41:02.055Z,10.05
2023-05-10T12:43:32.032Z,10.93
2023-05-10T12:46:08.710Z,11.55
2023-05-10T12:48:38.933Z,12.15
2023-05-10T12:51:10.522Z,9.75
2023-05-10T12:53:41.501Z,11.37
2023-05-10T12:56:12.944Z,10.73
2023-05-10T12:58:42.640Z,11.18
2023-05-10T13:01:14.787Z,12.30
2023-05-10T13:03:44.312Z,11.43
2023-05-10T13:06:14.582Z,11.07
2023-05-10T13:08:44.069Z,11.45
2023-05-10T13:11:17.623Z,10.75
2023-05-10T13:13:47.109Z,10.27
2023-05-10T13:16:19.257Z,9.63
2023-05-10T13:18:48.879Z,11.15
2023-05-10T13:21:18.415Z,11.55
2023-05-10T13:23:47.894Z,11.00
2023-05-10T13:26:17.390Z,9.73
2023-05-10T13:28:47.516Z,11.13
2023-05-10T13:31:19.562Z,9.35
2023-05-10T13:33:49.028Z,9.73
2023-05-10T13:36:18.482Z,8.77
2023-05-10T13:38:47.915Z,8.98
2023-05-10T13:41:17.370Z,7.68
2023-05-10T13:43:47.080Z,8.43
2023-05-10T13:46:19.213Z,10.43
2023-05-10T13:48:48.741Z,8.93
2023-05-10T13:51:18.196Z,9.50
2023-05-10T13:53:48.165Z,10.38
2023-05-10T13:56:17.740Z,8.18
2023-05-10T13:58:47.567Z,8.88
2023-05-10T14:01:19.729Z,9.63
2023-05-10T14:03:49.366Z,8.10
2023-05-10T14:06:19.000Z,9.82
2023-05-10T14:08:48.473Z,8.60
2023-05-10T14:11:18.638Z,9.88
2023-05-10T14:13:48.126Z,8.57
2023-05-10T14:16:21.229Z,8.48
2023-05-10T14:18:50.990Z,9.20
2023-05-10T14:21:20.650Z,10.55
2023-05-10T14:23:50.122Z,13.80
2023-05-10T14:26:19.695Z,14.20
2023-05-10T14:28:49.227Z,13.25
2023-05-10T14:31:21.605Z,11.55
2023-05-10T14:33:51.241Z,13.52
2023-05-10T14:36:21.116Z,16.10
2023-05-10T14:38:50.631Z,14.00
2023-05-10T14:41:20.199Z,17.48
2023-05-10T14:43:49.768Z,17.15
2023-05-10T14:46:21.993Z,16.10
2023-05-10T14:48:51.516Z,17.38
2023-05-10T14:51:22.884Z,15.85
2023-05-10T14:53:52.877Z,15.13
2023-05-10T14:56:22.619Z,16.38
2023-05-10T14:58:53.767Z,16.35
2023-05-10T15:01:26.374Z,16.33
